Time,TemperatureF,DewpointF,PressureIn,WindDirection,WindDirectionDegrees,WindSpeedMPH,WindSpeedGustMPH,Humidity,HourlyPrecipIn,Conditions,Clouds,dailyrainin,SolarRadiationWatts/m^2,SoftwareType,DateUTC
2013-08-14 00:01:00,74.0,73.1,29.85,SW,223,0.0,0.0,97,0.00,,,0.00,0,Wunderground v.1.15,2013-08-14 04:01:00,
2013-08-14 00:02:00,74.1,73.2,29.85,SW,223,0.0,0.0,97,0.00,,,0.00,0,Wunderground v.1.15,2013-08-14 04:02:00,
2013-08-14 00:08:00,73.9,73.0,29.85,SW,223,0.0,0.0,97,0.00,,,0.00,0,Wunderground v.1.15,2013-08-14 04:08:00,
2013-08-14 00:10:00,73.8,72.9,29.85,SW,223,0.0,0.0,97,0.00,,,0.00,0,Wunderground v.1.15,2013-08-14 04:10:00,
2013-08-14 00:16:00,73.8,72.9,29.86,SW,223,0.0,0.0,97,0.00,,,0.00,0,Wunderground v.1.15,2013-08-14 04:16:00,
2013-08-14 00:21:00,73.6,72.7,29.86,SW,223,0.0,1.0,97,0.00,,,0.00,0,Wunderground v.1.15,2013-08-14 04:21:00,
2013-08-14 00:25:00,73.5,72.6,29.86,SW,223,0.0,1.0,97,0.00,,,0.00,0,Wunderground v.1.15,2013-08-14 04:25:00,
2013-08-14 00:30:00,73.6,72.7,29.86,SW,223,0.0,0.0,97,0.00,,,0.00,0,Wunderground v.1.15,2013-08-14 04:30:00,
2013-08-14 00:36:00,73.6,72.7,29.86,SW,223,0.0,0.0,97,0.00,,,0.00,0,Wunderground v.1.15,2013-08-14 04:36:00,
2013-08-14 00:42:00,73.5,72.6,29.86,SW,223,0.0,1.0,97,0.00,,,0.00,0,Wunderground v.1.15,2013-08-14 04:42:00,
2013-08-14 00:47:00,73.5,72.6,29.86,SW,223,0.0,1.0,97,0.00,,,0.00,0,Wunderground v.1.15,2013-08-14 04:47:00,
2013-08-14 00:53:00,73.5,72.6,29.85,SW,223,0.0,0.0,97,0.00,,,0.00,0,Wunderground v.1.15,2013-08-14 04:53:00,
2013-08-14 00:58:00,73.4,72.5,29.85,SW,223,0.0,0.0,97,0.00,,,0.00,0,Wunderground v.1.15,2013-08-14 04:58:00,
2013-08-14 01:04:00,73.3,72.4,29.85,SW,236,0.0,1.0,97,0.00,,,0.00,0,Wunderground v.1.15,2013-08-14 05:04:00,
2013-08-14 01:09:00,73.3,72.4,29.86,West,259,0.0,2.0,97,0.00,,,0.00,0,Wunderground v.1.15,2013-08-14 05:09:00,
2013-08-14 01:15:00,73.3,72.4,29.86,West,270,0.0,1.0,97,0.00,,,0.00,0,Wunderground v.1.15,2013-08-14 05:15:00,
2013-08-14 01:21:00,73.3,72.1,29.86,West,279,1.0,1.0,96,0.00,,,0.00,0,Wunderground v.1.15,2013-08-14 05:21:00,
2013-08-14 01:26:00,73.3,72.1,29.86,NW,325,0.0,1.0,96,0.00,,,0.00,0,Wunderground v.1.15,2013-08-14 05:26:00,
2013-08-14 01:32:00,73.3,72.1,29.86,WNW,299,1.0,1.0,96,0.00,,,0.00,0,Wunderground v.1.15,2013-08-14 05:32:00,
2013-08-14 01:37:00,73.2,71.7,29.86,West,280,0.0,1.0,95,0.00,,,0.00,0,Wunderground v.1.15,2013-08-14 05:37:00,
2013-08-14 01:43:00,73.2,71.7,29.86,NNW,331,1.0,2.0,95,0.00,,,0.00,0,Wunderground v.1.15,2013-08-14 05:43:00,
2013-08-14 01:49:00,73.2,71.7,29.87,WSW,246,0.0,2.0,95,0.00,,,0.00,0,Wunderground v.1.15,2013-08-14 05:49:00,
2013-08-14 01:54:00,73.1,71.6,29.87,WNW,286,0.0,0.0,95,0.00,,,0.00,0,Wunderground v.1.15,2013-08-14 05:54:00,
2013-08-14 02:01:00,72.9,71.4,29.87,West,264,0.0,0.0,95,0.00,,,0.00,0,Wunderground v.1.15,2013-08-14 06:01:00,
2013-08-14 02:06:00,73.0,71.2,29.87,WNW,287,0.0,2.0,94,0.00,,,0.00,0,Wunderground v.1.15,2013-08-14 06:06:00,
2013-08-14 02:11:00,72.9,71.1,29.87,SE,143,0.0,2.0,94,0.00,,,0.00,0,Wunderground v.1.15,2013-08-14 06:11:00,
2013-08-14 02:16:00,72.8,71.0,29.87,NW,325,0.0,2.0,94,0.00,,,0.00,0,Wunderground v.1.15,2013-08-14 06:16:00,
2013-08-14 02:21:00,72.8,71.0,29.87,NW,326,0.0,0.0,94,0.00,,,0.00,0,Wunderground v.1.15,2013-08-14 06:21:00,
2013-08-14 02:26:00,72.7,70.9,29.87,NNW,340,0.0,0.0,94,0.00,,,0.00,0,Wunderground v.1.15,2013-08-14 06:26:00,
2013-08-14 02:31:00,72.7,70.9,29.87,NNW,333,0.0,0.0,94,0.00,,,0.00,0,Wunderground v.1.15,2013-08-14 06:31:00,
2013-08-14 02:36:00,72.7,70.6,29.87,North,355,0.0,0.0,93,0.00,,,0.00,0,Wunderground v.1.15,2013-08-14 06:36:00,
2013-08-14 02:41:00,72.5,70.4,29.87,NW,313,0.0,0.0,93,0.00,,,0.00,0,Wunderground v.1.15,2013-08-14 06:41:00,
2013-08-14 02:46:00,72.5,70.4,29.87,West,267,0.0,2.0,93,0.00,,,0.00,0,Wunderground v.1.15,2013-08-14 06:46:00,
2013-08-14 02:51:00,72.4,70.3,29.87,West,259,0.0,2.0,93,0.00,,,0.00,0,Wunderground v.1.15,2013-08-14 06:51:00,
2013-08-14 02:56:00,72.4,70.3,29.87,NW,312,1.0,4.0,93,0.00,,,0.00,0,Wunderground v.1.15,2013-08-14 06:56:00,
2013-08-14 03:02:00,72.3,70.2,29.87,NNW,348,0.0,1.0,93,0.00,,,0.00,0,Wunderground v.1.15,2013-08-14 07:02:00,
2013-08-14 03:07:00,72.2,70.1,29.87,West,278,0.0,4.0,93,0.00,,,0.00,0,Wunderground v.1.15,2013-08-14 07:07:00,
2013-08-14 03:12:00,72.1,70.0,29.87,NW,311,0.0,1.0,93,0.00,,,0.00,0,Wunderground v.1.15,2013-08-14 07:12:00,
2013-08-14 03:17:00,72.1,70.0,29.88,NW,321,1.0,4.0,93,0.00,,,0.00,0,Wunderground v.1.15,2013-08-14 07:17:00,
2013-08-14 03:22:00,72.1,70.0,29.88,NW,317,0.0,2.0,93,0.00,,,0.00,0,Wunderground v.1.15,2013-08-14 07:22:00,
2013-08-14 03:27:00,72.0,69.9,29.88,West,270,0.0,3.0,93,0.00,,,0.00,0,Wunderground v.1.15,2013-08-14 07:27:00,
2013-08-14 03:32:00,72.0,69.9,29.88,WNW,298,0.0,1.0,93,0.00,,,0.00,0,Wunderground v.1.15,2013-08-14 07:32:00,
2013-08-14 03:37:00,71.8,69.7,29.88,NW,305,0.0,2.0,93,0.00,,,0.00,0,Wunderground v.1.15,2013-08-14 07:37:00,
2013-08-14 03:42:00,71.7,69.6,29.88,NW,311,0.0,0.0,93,0.00,,,0.00,0,Wunderground v.1.15,2013-08-14 07:42:00,
2013-08-14 03:47:00,71.5,69.4,29.88,NW,317,0.0,1.0,93,0.00,,,0.00,0,Wunderground v.1.15,2013-08-14 07:47:00,
2013-08-14 03:52:00,71.5,69.4,29.88,NW,311,0.0,2.0,93,0.00,,,0.00,0,Wunderground v.1.15,2013-08-14 07:52:00,
2013-08-14 03:57:00,71.5,69.4,29.88,NW,324,0.0,2.0,93,0.00,,,0.00,0,Wunderground v.1.15,2013-08-14 07:57:00,
2013-08-14 04:02:00,71.5,69.4,29.89,NW,324,0.0,0.0,93,0.00,,,0.00,0,Wunderground v.1.15,2013-08-14 08:02:00,
2013-08-14 04:07:00,71.5,69.4,29.89,WNW,297,1.0,2.0,93,0.00,,,0.00,0,Wunderground v.1.15,2013-08-14 08:07:00,
2013-08-14 04:12:00,71.6,69.5,29.89,NW,312,1.0,2.0,93,0.00,,,0.00,0,Wunderground v.1.15,2013-08-14 08:12:00,
2013-08-14 04:17:00,71.6,69.2,29.89,NNW,333,0.0,2.0,92,0.00,,,0.00,0,Wunderground v.1.15,2013-08-14 08:17:00,
2013-08-14 04:22:00,71.4,69.0,29.89,NW,324,0.0,1.0,92,0.00,,,0.00,0,Wunderground v.1.15,2013-08-14 08:22:00,
2013-08-14 04:27:00,71.2,69.1,29.89,NW,325,0.0,1.0,93,0.00,,,0.00,0,Wunderground v.1.15,2013-08-14 08:27:00,
2013-08-14 04:32:00,71.1,69.0,29.89,NNW,341,0.0,2.0,93,0.00,,,0.00,0,Wunderground v.1.15,2013-08-14 08:32:00,
2013-08-14 04:37:00,71.0,68.6,29.89,North,360,1.0,3.0,92,0.00,,,0.00,0,Wunderground v.1.15,2013-08-14 08:37:00,
2013-08-14 04:42:00,71.0,68.6,29.90,North,5,2.0,4.0,92,0.00,,,0.00,0,Wunderground v.1.15,2013-08-14 08:42:00,
2013-08-14 04:47:00,70.9,68.5,29.90,NNW,345,3.0,4.0,92,0.00,,,0.00,0,Wunderground v.1.15,2013-08-14 08:47:00,
2013-08-14 04:52:00,70.9,68.5,29.90,NNW,343,0.0,1.0,92,0.00,,,0.00,0,Wunderground v.1.15,2013-08-14 08:52:00,
2013-08-14 04:57:00,70.9,68.5,29.91,North,9,1.0,4.0,92,0.00,,,0.00,0,Wunderground v.1.15,2013-08-14 08:57:00,
2013-08-14 05:02:00,71.1,68.3,29.91,North,5,0.0,1.0,91,0.00,,,0.00,0,Wunderground v.1.15,2013-08-14 09:02:00,
2013-08-14 05:08:00,71.1,68.3,29.90,North,5,0.0,2.0,91,0.00,,,0.00,0,Wunderground v.1.15,2013-08-14 09:08:00,
2013-08-14 05:13:00,71.0,68.6,29.91,North,5,0.0,0.0,92,0.00,,,0.00,0,Wunderground v.1.15,2013-08-14 09:13:00,
2013-08-14 05:18:00,70.5,68.4,29.91,North,5,0.0,1.0,93,0.00,,,0.00,0,Wunderground v.1.15,2013-08-14 09:18:00,
2013-08-14 05:23:00,70.2,68.1,29.91,NNW,346,2.0,2.0,93,0.00,,,0.00,0,Wunderground v.1.15,2013-08-14 09:23:00,
2013-08-14 05:28:00,70.2,68.1,29.91,North,360,1.0,3.0,93,0.00,,,0.00,0,Wunderground v.1.15,2013-08-14 09:28:00,
2013-08-14 05:33:00,70.2,68.1,29.92,North,360,1.0,1.0,93,0.00,,,0.00,0,Wunderground v.1.15,2013-08-14 09:33:00,
2013-08-14 05:38:00,69.9,67.8,29.92,NNE,14,3.0,4.0,93,0.00,,,0.00,0,Wunderground v.1.15,2013-08-14 09:38:00,
2013-08-14 05:43:00,69.9,67.5,29.92,North,360,3.0,4.0,92,0.00,,,0.00,0,Wunderground v.1.15,2013-08-14 09:43:00,
2013-08-14 05:48:00,69.9,67.2,29.92,NNE,23,3.0,4.0,91,0.00,,,0.00,0,Wunderground v.1.15,2013-08-14 09:48:00,
2013-08-14 05:53:00,70.0,66.9,29.92,North,350,1.0,4.0,90,0.00,,,0.00,0,Wunderground v.1.15,2013-08-14 09:53:00,
2013-08-14 05:58:00,69.8,66.7,29.93,NNE,24,1.0,5.0,90,0.00,,,0.00,0,Wunderground v.1.15,2013-08-14 09:58:00,
2013-08-14 06:03:00,69.7,66.6,29.93,North,5,3.0,4.0,90,0.00,,,0.00,0,Wunderground v.1.15,2013-08-14 10:03:00,
2013-08-14 06:08:00,69.5,66.4,29.94,NNE,17,2.0,4.0,90,0.00,,,0.00,0,Wunderground v.1.15,2013-08-14 10:08:00,
2013-08-14 06:13:00,69.4,66.7,29.94,North,5,2.0,5.0,91,0.00,,,0.00,0,Wunderground v.1.15,2013-08-14 10:13:00,
2013-08-14 06:18:00,69.4,66.7,29.94,ENE,61,4.0,6.0,91,0.00,,,0.00,0,Wunderground v.1.15,2013-08-14 10:18:00,
2013-08-14 06:23:00,69.8,66.7,29.95,NNE,32,3.0,4.0,90,0.00,,,0.00,0,Wunderground v.1.15,2013-08-14 10:23:00,
2013-08-14 06:28:00,69.6,66.5,29.96,North,355,2.0,4.0,90,0.00,,,0.00,0,Wunderground v.1.15,2013-08-14 10:28:00,
2013-08-14 06:33:00,69.4,66.3,29.96,North,5,0.0,3.0,90,0.00,,,0.00,0,Wunderground v.1.15,2013-08-14 10:33:00,
2013-08-14 06:38:00,69.4,66.3,29.96,North,5,2.0,5.0,90,0.00,,,0.00,9,Wunderground v.1.15,2013-08-14 10:38:00,
2013-08-14 06:43:00,69.6,66.5,29.97,NNE,12,0.0,4.0,90,0.00,,,0.00,12,Wunderground v.1.15,2013-08-14 10:43:00,
2013-08-14 06:48:00,69.3,66.6,29.97,NW,313,2.0,4.0,91,0.00,,,0.00,9,Wunderground v.1.15,2013-08-14 10:48:00,
2013-08-14 06:53:00,69.2,66.5,29.97,NNE,20,6.0,7.0,91,0.00,,,0.00,14,Wunderground v.1.15,2013-08-14 10:53:00,
2013-08-14 06:58:00,69.5,65.8,29.98,NNE,26,5.0,9.0,88,0.00,,,0.00,19,Wunderground v.1.15,2013-08-14 10:58:00,
2013-08-14 07:03:00,69.7,65.7,29.98,NNE,15,5.0,7.0,87,0.00,,,0.00,33,Wunderground v.1.15,2013-08-14 11:03:00,
2013-08-14 07:08:00,69.6,65.6,29.98,North,11,4.0,7.0,87,0.00,,,0.00,53,Wunderground v.1.15,2013-08-14 11:08:00,
2013-08-14 07:13:00,69.5,65.1,29.98,NE,46,6.0,7.0,86,0.00,,,0.00,60,Wunderground v.1.15,2013-08-14 11:13:00,
2013-08-14 07:18:00,69.5,65.1,29.99,NE,36,7.0,9.0,86,0.00,,,0.00,83,Wunderground v.1.15,2013-08-14 11:18:00,
2013-08-14 07:23:00,69.5,64.8,29.99,NNE,26,5.0,7.0,85,0.00,,,0.00,74,Wunderground v.1.15,2013-08-14 11:23:00,
2013-08-14 07:28:00,69.4,64.7,29.99,NNE,17,6.0,9.0,85,0.00,,,0.00,113,Wunderground v.1.15,2013-08-14 11:28:00,
2013-08-14 07:33:00,69.4,64.0,29.99,NE,44,5.0,10.0,83,0.00,,,0.00,118,Wunderground v.1.15,2013-08-14 11:33:00,
2013-08-14 07:38:00,69.3,64.3,29.99,NE,34,3.0,10.0,84,0.00,,,0.00,169,Wunderground v.1.15,2013-08-14 11:38:00,
2013-08-14 07:44:00,69.1,64.7,29.99,North,5,4.0,7.0,86,0.00,,,0.00,111,Wunderground v.1.15,2013-08-14 11:44:00,
2013-08-14 07:49:00,68.8,63.8,30.00,North,355,3.0,9.0,84,0.00,,,0.00,148,Wunderground v.1.15,2013-08-14 11:49:00,
2013-08-14 07:54:00,68.9,63.5,30.00,NE,51,6.0,9.0,83,0.00,,,0.00,190,Wunderground v.1.15,2013-08-14 11:54:00,
2013-08-14 07:59:00,69.1,63.7,30.00,NE,42,5.0,11.0,83,0.00,,,0.00,102,Wunderground v.1.15,2013-08-14 11:59:00,
2013-08-14 08:04:00,68.8,63.4,30.00,NNE,32,6.0,8.0,83,0.00,,,0.00,125,Wunderground v.1.15,2013-08-14 12:04:00,
2013-08-14 08:09:00,68.9,63.2,30.00,NE,52,6.0,10.0,82,0.00,,,0.00,171,Wunderground v.1.15,2013-08-14 12:09:00,
2013-08-14 08:14:00,69.0,62.9,30.00,NE,50,11.0,11.0,81,0.00,,,0.00,132,Wunderground v.1.15,2013-08-14 12:14:00,
2013-08-14 08:19:00,69.0,62.6,30.01,ENE,74,8.0,12.0,80,0.00,,,0.00,167,Wunderground v.1.15,2013-08-14 12:19:00,
2013-08-14 08:24:00,68.9,61.8,30.01,NE,35,4.0,10.0,78,0.00,,,0.00,176,Wunderground v.1.15,2013-08-14 12:24:00,
2013-08-14 08:29:00,68.7,62.3,30.02,North,360,4.0,10.0,80,0.00,,,0.00,146,Wunderground v.1.15,2013-08-14 12:29:00,
2013-08-14 08:34:00,68.5,62.1,30.02,NNE,22,6.0,10.0,80,0.00,,,0.00,109,Wunderground v.1.15,2013-08-14 12:34:00,
2013-08-14 08:39:00,68.6,62.2,30.02,NNW,335,4.0,6.0,80,0.00,,,0.00,116,Wunderground v.1.15,2013-08-14 12:39:00,
2013-08-14 08:44:00,68.5,61.7,30.02,NNE,30,6.0,13.0,79,0.00,,,0.00,114,Wunderground v.1.15,2013-08-14 12:44:00,
2013-08-14 08:49:00,68.3,61.9,30.03,NNE,24,5.0,6.0,80,0.00,,,0.00,116,Wunderground v.1.15,2013-08-14 12:49:00,
2013-08-14 08:54:00,67.9,61.9,30.03,NNE,18,4.0,9.0,81,0.00,,,0.00,132,Wunderground v.1.15,2013-08-14 12:54:00,
2013-08-14 08:59:00,68.0,61.9,30.03,NNE,32,2.0,4.0,81,0.00,,,0.00,186,Wunderground v.1.15,2013-08-14 12:59:00,
2013-08-14 09:04:00,68.5,61.7,30.03,NNE,24,7.0,10.0,79,0.00,,,0.00,230,Wunderground v.1.15,2013-08-14 13:04:00,
2013-08-14 09:09:00,68.6,61.8,30.03,NNE,26,3.0,6.0,79,0.00,,,0.00,243,Wunderground v.1.15,2013-08-14 13:09:00,
2013-08-14 09:15:00,68.6,62.5,30.04,NNE,32,8.0,8.0,81,0.00,,,0.00,248,Wunderground v.1.15,2013-08-14 13:15:00,
2013-08-14 09:20:00,68.7,61.9,30.03,NNE,33,3.0,5.0,79,0.00,,,0.00,230,Wunderground v.1.15,2013-08-14 13:20:00,
2013-08-14 09:25:00,68.8,62.0,30.03,NNE,32,8.0,8.0,79,0.00,,,0.00,239,Wunderground v.1.15,2013-08-14 13:25:00,
2013-08-14 09:30:00,68.8,62.0,30.03,North,360,6.0,6.0,79,0.00,,,0.00,230,Wunderground v.1.15,2013-08-14 13:30:00,
2013-08-14 09:35:00,68.9,61.4,30.04,NE,53,9.0,10.0,77,0.00,,,0.00,227,Wunderground v.1.15,2013-08-14 13:35:00,
2013-08-14 09:40:00,68.9,61.0,30.04,NNE,32,4.0,7.0,76,0.00,,,0.00,230,Wunderground v.1.15,2013-08-14 13:40:00,
2013-08-14 09:45:00,68.7,60.5,30.05,NE,37,6.0,11.0,75,0.00,,,0.00,253,Wunderground v.1.15,2013-08-14 13:45:00,
2013-08-14 09:50:00,68.5,60.6,30.05,NNE,26,8.0,10.0,76,0.00,,,0.00,313,Wunderground v.1.15,2013-08-14 13:50:00,
2013-08-14 09:55:00,68.3,59.7,30.05,NE,46,11.0,11.0,74,0.00,,,0.00,309,Wunderground v.1.15,2013-08-14 13:55:00,
2013-08-14 10:00:00,68.4,59.8,30.05,NNE,25,5.0,7.0,74,0.00,,,0.00,301,Wunderground v.1.15,2013-08-14 14:00:00,
2013-08-14 10:05:00,68.2,59.6,30.05,NNE,27,11.0,11.0,74,0.00,,,0.00,338,Wunderground v.1.15,2013-08-14 14:05:00,
2013-08-14 10:10:00,68.1,59.9,30.05,NNE,22,6.0,6.0,75,0.00,,,0.00,332,Wunderground v.1.15,2013-08-14 14:10:00,
2013-08-14 10:15:00,68.0,59.4,30.06,NNE,33,7.0,9.0,74,0.00,,,0.00,318,Wunderground v.1.15,2013-08-14 14:15:00,
2013-08-14 10:20:00,67.8,59.6,30.06,NNE,20,3.0,5.0,75,0.00,,,0.00,311,Wunderground v.1.15,2013-08-14 14:20:00,
2013-08-14 10:25:00,68.0,59.0,30.06,NNE,26,5.0,9.0,73,0.00,,,0.00,311,Wunderground v.1.15,2013-08-14 14:25:00,
2013-08-14 10:30:00,68.0,59.4,30.07,NE,39,4.0,8.0,74,0.00,,,0.00,345,Wunderground v.1.15,2013-08-14 14:30:00,
2013-08-14 10:35:00,68.1,60.2,30.07,North,355,1.0,9.0,76,0.00,,,0.00,346,Wunderground v.1.15,2013-08-14 14:35:00,
2013-08-14 10:40:00,67.7,58.7,30.07,NNE,30,4.0,5.0,73,0.00,,,0.00,343,Wunderground v.1.15,2013-08-14 14:40:00,
2013-08-14 10:45:00,67.9,58.9,30.07,NNE,32,8.0,11.0,73,0.00,,,0.00,350,Wunderground v.1.15,2013-08-14 14:45:00,
2013-08-14 10:50:00,67.8,58.8,30.07,NNE,19,11.0,11.0,73,0.00,,,0.00,359,Wunderground v.1.15,2013-08-14 14:50:00,
2013-08-14 10:55:00,68.1,57.9,30.07,NNE,32,6.0,11.0,70,0.00,,,0.00,360,Wunderground v.1.15,2013-08-14 14:55:00,
2013-08-14 11:00:00,67.5,58.2,30.07,NE,52,2.0,6.0,72,0.00,,,0.00,385,Wunderground v.1.15,2013-08-14 15:00:00,
2013-08-14 11:05:00,67.4,57.7,30.07,NNW,346,4.0,10.0,71,0.00,,,0.00,360,Wunderground v.1.15,2013-08-14 15:05:00,
2013-08-14 11:10:00,67.5,58.5,30.08,NNE,27,4.0,9.0,73,0.00,,,0.00,357,Wunderground v.1.15,2013-08-14 15:10:00,
2013-08-14 11:15:00,67.2,57.1,30.08,North,5,9.0,9.0,70,0.00,,,0.00,369,Wunderground v.1.15,2013-08-14 15:15:00,
2013-08-14 11:20:00,67.4,57.7,30.08,NE,40,10.0,11.0,71,0.00,,,0.00,504,Wunderground v.1.15,2013-08-14 15:20:00,
2013-08-14 11:25:00,67.6,58.2,30.08,NNW,345,3.0,11.0,72,0.00,,,0.00,425,Wunderground v.1.15,2013-08-14 15:25:00,
2013-08-14 11:30:00,67.8,58.1,30.08,North,350,0.0,7.0,71,0.00,,,0.00,457,Wunderground v.1.15,2013-08-14 15:30:00,
2013-08-14 11:35:00,68.0,58.6,30.08,NNE,29,5.0,9.0,72,0.00,,,0.00,548,Wunderground v.1.15,2013-08-14 15:35:00,
2013-08-14 11:40:00,68.5,58.7,30.08,NE,37,4.0,6.0,71,0.00,,,0.00,471,Wunderground v.1.15,2013-08-14 15:40:00,
2013-08-14 11:45:00,68.5,59.9,30.08,North,9,4.0,7.0,74,0.00,,,0.00,397,Wunderground v.1.15,2013-08-14 15:45:00,
2013-08-14 11:50:00,68.1,58.3,30.08,NE,51,6.0,7.0,71,0.00,,,0.00,406,Wunderground v.1.15,2013-08-14 15:50:00,
2013-08-14 11:55:00,67.9,58.9,30.08,North,350,3.0,10.0,73,0.00,,,0.00,475,Wunderground v.1.15,2013-08-14 15:55:00,
2013-08-14 12:01:00,68.1,57.1,30.08,NE,36,4.0,5.0,68,0.00,,,0.00,538,Wunderground v.1.15,2013-08-14 16:01:00,
2013-08-14 12:06:00,68.5,57.5,30.08,NNE,22,7.0,9.0,68,0.00,,,0.00,387,Wunderground v.1.15,2013-08-14 16:06:00,
2013-08-14 12:11:00,68.0,57.8,30.08,NNE,26,2.0,6.0,70,0.00,,,0.00,396,Wunderground v.1.15,2013-08-14 16:11:00,
2013-08-14 12:16:00,67.8,58.1,30.08,NE,44,6.0,9.0,71,0.00,,,0.00,401,Wunderground v.1.15,2013-08-14 16:16:00,
2013-08-14 12:21:00,67.9,58.1,30.08,NNE,28,8.0,9.0,71,0.00,,,0.00,380,Wunderground v.1.15,2013-08-14 16:21:00,
2013-08-14 12:26:00,68.1,57.1,30.08,NNE,33,5.0,9.0,68,0.00,,,0.00,406,Wunderground v.1.15,2013-08-14 16:26:00,
2013-08-14 12:31:00,68.3,58.5,30.08,North,355,3.0,5.0,71,0.00,,,0.00,452,Wunderground v.1.15,2013-08-14 16:31:00,
2013-08-14 12:36:00,68.1,58.7,30.08,NNE,13,4.0,7.0,72,0.00,,,0.00,454,Wunderground v.1.15,2013-08-14 16:36:00,
2013-08-14 12:41:00,68.5,58.7,30.08,NNE,26,4.0,7.0,71,0.00,,,0.00,483,Wunderground v.1.15,2013-08-14 16:41:00,
2013-08-14 12:46:00,68.6,60.0,30.08,North,11,5.0,9.0,74,0.00,,,0.00,689,Wunderground v.1.15,2013-08-14 16:46:00,
2013-08-14 12:52:00,69.3,57.9,30.08,NE,54,7.0,9.0,67,0.00,,,0.00,640,Wunderground v.1.15,2013-08-14 16:52:00,
2013-08-14 12:57:00,69.5,57.2,30.08,NE,38,4.0,9.0,65,0.00,,,0.00,661,Wunderground v.1.15,2013-08-14 16:57:00,
2013-08-14 13:02:00,69.7,57.8,30.07,ENE,65,4.0,7.0,66,0.00,,,0.00,494,Wunderground v.1.15,2013-08-14 17:02:00,
2013-08-14 13:07:00,70.5,57.7,30.08,NE,46,5.0,11.0,64,0.00,,,0.00,802,Wunderground v.1.15,2013-08-14 17:07:00,
2013-08-14 13:12:00,70.5,57.7,30.07,NE,45,8.0,8.0,64,0.00,,,0.00,1025,Wunderground v.1.15,2013-08-14 17:12:00,
2013-08-14 13:17:00,71.1,57.4,30.08,NNE,13,4.0,11.0,62,0.00,,,0.00,1004,Wunderground v.1.15,2013-08-14 17:17:00,
2013-08-14 13:22:00,71.0,57.8,30.08,ENE,67,3.0,8.0,63,0.00,,,0.00,513,Wunderground v.1.15,2013-08-14 17:22:00,
2013-08-14 13:27:00,70.8,58.4,30.07,ENE,69,3.0,8.0,65,0.00,,,0.00,522,Wunderground v.1.15,2013-08-14 17:27:00,
2013-08-14 13:32:00,70.7,57.9,30.07,NE,38,4.0,7.0,64,0.00,,,0.00,478,Wunderground v.1.15,2013-08-14 17:32:00,
2013-08-14 13:37:00,71.0,57.8,30.07,North,5,5.0,9.0,63,0.00,,,0.00,548,Wunderground v.1.15,2013-08-14 17:37:00,
2013-08-14 13:42:00,71.1,57.9,30.07,NE,38,4.0,9.0,63,0.00,,,0.00,496,Wunderground v.1.15,2013-08-14 17:42:00,
2013-08-14 13:47:00,71.0,58.2,30.08,NNW,342,2.0,9.0,64,0.00,,,0.00,592,Wunderground v.1.15,2013-08-14 17:47:00,
2013-08-14 13:53:00,70.9,58.5,30.08,NE,35,5.0,6.0,65,0.00,,,0.00,701,Wunderground v.1.15,2013-08-14 17:53:00,
2013-08-14 13:58:00,71.1,58.3,30.07,NW,318,1.0,10.0,64,0.00,,,0.00,638,Wunderground v.1.15,2013-08-14 17:58:00,
2013-08-14 14:03:00,71.0,59.9,30.07,NNW,338,5.0,7.0,68,0.00,,,0.00,457,Wunderground v.1.15,2013-08-14 18:03:00,
2013-08-14 14:08:00,71.2,58.0,30.07,NNE,19,6.0,11.0,63,0.00,,,0.00,729,Wunderground v.1.15,2013-08-14 18:08:00,
2013-08-14 14:13:00,70.8,57.6,30.07,NNE,21,6.0,9.0,63,0.00,,,0.00,506,Wunderground v.1.15,2013-08-14 18:13:00,
2013-08-14 14:18:00,71.6,57.9,30.06,North,355,2.0,9.0,62,0.00,,,0.00,425,Wunderground v.1.15,2013-08-14 18:18:00,
2013-08-14 14:23:00,71.4,57.7,30.06,North,10,8.0,9.0,62,0.00,,,0.00,411,Wunderground v.1.15,2013-08-14 18:23:00,
2013-08-14 14:28:00,71.2,58.8,30.07,NE,39,5.0,9.0,65,0.00,,,0.00,438,Wunderground v.1.15,2013-08-14 18:28:00,
2013-08-14 14:33:00,71.4,59.0,30.06,NE,36,9.0,9.0,65,0.00,,,0.00,865,Wunderground v.1.15,2013-08-14 18:33:00,
2013-08-14 14:38:00,72.8,61.6,30.06,WSW,242,1.0,9.0,68,0.00,,,0.00,649,Wunderground v.1.15,2013-08-14 18:38:00,
2013-08-14 14:44:00,72.4,58.6,30.06,East,96,2.0,8.0,62,0.00,,,0.00,647,Wunderground v.1.15,2013-08-14 18:44:00,
2013-08-14 14:49:00,72.8,59.0,30.06,WNW,297,3.0,8.0,62,0.00,,,0.00,717,Wunderground v.1.15,2013-08-14 18:49:00,
2013-08-14 14:54:00,73.1,60.6,30.06,NW,325,1.0,4.0,65,0.00,,,0.00,703,Wunderground v.1.15,2013-08-14 18:54:00,
2013-08-14 14:59:00,72.7,61.9,30.06,North,5,6.0,6.0,69,0.00,,,0.00,636,Wunderground v.1.15,2013-08-14 18:59:00,
2013-08-14 15:06:00,73.4,59.1,30.06,NNW,344,7.0,7.0,61,0.00,,,0.00,863,Wunderground v.1.15,2013-08-14 19:06:00,
2013-08-14 15:12:00,73.4,60.0,30.06,North,9,0.0,5.0,63,0.00,,,0.00,872,Wunderground v.1.15,2013-08-14 19:12:00,
2013-08-14 15:25:00,72.7,60.7,30.06,NW,323,0.0,1.0,66,0.00,,,0.00,299,Wunderground v.1.15,2013-08-14 19:25:00,
2013-08-14 15:31:00,72.6,60.2,30.06,NNW,340,2.0,2.0,65,0.00,,,0.00,381,Wunderground v.1.15,2013-08-14 19:31:00,
2013-08-14 15:36:00,73.2,59.8,30.06,North,355,1.0,3.0,63,0.00,,,0.00,758,Wunderground v.1.15,2013-08-14 19:36:00,
2013-08-14 15:41:00,73.9,60.5,30.06,North,9,2.0,3.0,63,0.00,,,0.00,573,Wunderground v.1.15,2013-08-14 19:41:00,
2013-08-14 15:46:00,73.5,57.8,30.07,NE,36,6.0,11.0,58,0.00,,,0.00,469,Wunderground v.1.15,2013-08-14 19:46:00,
2013-08-14 15:51:00,73.6,59.3,30.06,NNE,17,0.0,5.0,61,0.00,,,0.00,517,Wunderground v.1.15,2013-08-14 19:51:00,
2013-08-14 15:56:00,72.5,57.8,30.07,North,355,2.0,7.0,60,0.00,,,0.00,301,Wunderground v.1.15,2013-08-14 19:56:00,
2013-08-14 16:11:00,70.9,59.0,30.07,NW,323,2.0,2.0,66,0.00,,,0.00,388,Wunderground v.1.15,2013-08-14 20:11:00,
2013-08-14 16:16:00,71.0,60.3,30.07,North,5,2.0,4.0,69,0.00,,,0.00,352,Wunderground v.1.15,2013-08-14 20:16:00,
2013-08-14 16:21:00,71.2,58.8,30.07,North,360,1.0,3.0,65,0.00,,,0.00,366,Wunderground v.1.15,2013-08-14 20:21:00,
2013-08-14 16:26:00,71.7,58.4,30.07,NE,52,8.0,8.0,63,0.00,,,0.00,369,Wunderground v.1.15,2013-08-14 20:26:00,
2013-08-14 16:31:00,71.5,59.5,30.07,NNW,329,0.0,4.0,66,0.00,,,0.00,381,Wunderground v.1.15,2013-08-14 20:31:00,
2013-08-14 16:37:00,71.6,58.3,30.07,NNE,28,8.0,9.0,63,0.00,,,0.00,315,Wunderground v.1.15,2013-08-14 20:37:00,
2013-08-14 16:42:00,71.5,58.2,30.07,NNE,18,6.0,7.0,63,0.00,,,0.00,401,Wunderground v.1.15,2013-08-14 20:42:00,
2013-08-14 16:47:00,70.8,60.1,30.07,NNW,344,2.0,11.0,69,0.00,,,0.00,281,Wunderground v.1.15,2013-08-14 20:47:00,
2013-08-14 16:52:00,70.2,57.9,30.07,NNE,32,3.0,4.0,65,0.00,,,0.00,287,Wunderground v.1.15,2013-08-14 20:52:00,
2013-08-14 16:57:00,70.1,58.6,30.08,NNE,27,5.0,6.0,67,0.00,,,0.00,272,Wunderground v.1.15,2013-08-14 20:57:00,
2013-08-14 17:02:00,70.2,58.7,30.07,North,10,2.0,4.0,67,0.00,,,0.00,265,Wunderground v.1.15,2013-08-14 21:02:00,
2013-08-14 17:07:00,69.9,59.7,30.08,NNE,24,2.0,4.0,70,0.00,,,0.00,265,Wunderground v.1.15,2013-08-14 21:07:00,
2013-08-14 17:12:00,70.1,59.9,30.07,North,355,3.0,7.0,70,0.00,,,0.00,258,Wunderground v.1.15,2013-08-14 21:12:00,
2013-08-14 17:17:00,70.4,60.5,30.07,NNE,29,0.0,7.0,71,0.00,,,0.00,355,Wunderground v.1.15,2013-08-14 21:17:00,
2013-08-14 17:22:00,70.4,62.5,30.07,NNW,344,0.0,2.0,76,0.00,,,0.00,250,Wunderground v.1.15,2013-08-14 21:22:00,
2013-08-14 17:27:00,70.3,59.6,30.07,NE,48,2.0,4.0,69,0.00,,,0.00,265,Wunderground v.1.15,2013-08-14 21:27:00,
2013-08-14 17:32:00,70.0,61.7,30.07,NNW,348,1.0,2.0,75,0.00,,,0.00,251,Wunderground v.1.15,2013-08-14 21:32:00,
2013-08-14 17:37:00,70.4,58.1,30.07,North,349,1.0,6.0,65,0.00,,,0.00,237,Wunderground v.1.15,2013-08-14 21:37:00,
2013-08-14 17:42:00,70.2,58.3,30.07,NE,43,3.0,5.0,66,0.00,,,0.00,281,Wunderground v.1.15,2013-08-14 21:42:00,
2013-08-14 17:47:00,70.7,60.4,30.07,NW,322,0.0,5.0,70,0.00,,,0.00,288,Wunderground v.1.15,2013-08-14 21:47:00,
2013-08-14 17:52:00,71.7,58.4,30.07,NNE,32,4.0,5.0,63,0.00,,,0.00,336,Wunderground v.1.15,2013-08-14 21:52:00,
2013-08-14 17:57:00,71.6,57.0,30.07,NE,36,1.0,6.0,60,0.00,,,0.00,348,Wunderground v.1.15,2013-08-14 21:57:00,
2013-08-14 18:02:00,71.9,57.3,30.07,NE,40,1.0,5.0,60,0.00,,,0.00,396,Wunderground v.1.15,2013-08-14 22:02:00,
2013-08-14 18:07:00,72.4,57.3,30.07,East,82,5.0,6.0,59,0.00,,,0.00,334,Wunderground v.1.15,2013-08-14 22:07:00,
2013-08-14 18:12:00,72.3,57.6,30.08,NNE,12,4.0,6.0,60,0.00,,,0.00,257,Wunderground v.1.15,2013-08-14 22:12:00,
2013-08-14 18:17:00,72.3,57.6,30.08,NE,55,2.0,6.0,60,0.00,,,0.00,211,Wunderground v.1.15,2013-08-14 22:17:00,
2013-08-14 18:22:00,72.5,57.4,30.08,NNE,30,2.0,5.0,59,0.00,,,0.00,193,Wunderground v.1.15,2013-08-14 22:22:00,
2013-08-14 18:27:00,72.3,56.7,30.08,North,5,2.0,5.0,58,0.00,,,0.00,193,Wunderground v.1.15,2013-08-14 22:27:00,
2013-08-14 18:33:00,71.7,57.5,30.08,NNE,27,4.0,7.0,61,0.00,,,0.00,246,Wunderground v.1.15,2013-08-14 22:33:00,
2013-08-14 18:38:00,72.2,56.1,30.08,ENE,63,4.0,7.0,57,0.00,,,0.00,160,Wunderground v.1.15,2013-08-14 22:38:00,
2013-08-14 18:43:00,71.8,57.2,30.09,NNW,337,2.0,4.0,60,0.00,,,0.00,111,Wunderground v.1.15,2013-08-14 22:43:00,
2013-08-14 18:48:00,71.8,57.2,30.09,ESE,113,3.0,4.0,60,0.00,,,0.00,130,Wunderground v.1.15,2013-08-14 22:48:00,
2013-08-14 18:53:00,72.1,57.4,30.08,ENE,64,3.0,5.0,60,0.00,,,0.00,95,Wunderground v.1.15,2013-08-14 22:53:00,
2013-08-14 18:58:00,72.2,58.0,30.08,NE,55,3.0,5.0,61,0.00,,,0.00,107,Wunderground v.1.15,2013-08-14 22:58:00,
2013-08-14 19:03:00,72.0,58.3,30.08,SE,134,3.0,5.0,62,0.00,,,0.00,113,Wunderground v.1.15,2013-08-14 23:03:00,
2013-08-14 19:08:00,71.8,58.1,30.09,East,80,1.0,5.0,62,0.00,,,0.00,120,Wunderground v.1.15,2013-08-14 23:08:00,